• Join FlightAware (Why Join?)
  • Login
  • US Flag 
10:54PM EDT


 

Airport Tracker/Info


-or-


 

Live Flight TrackerFlight Track Log ✈ N52384 ✈ 04-May-2013 ✈ KUUU - KMMU

Flight Track Log - Related Links

Times and Time Zones

All times are in EDT time to prevent confusion due to time zone crossing. See the N52384 flight status page for this flight to view local times or setup timezone preferences in your user account.

Time Position Orientation Groundspeed Altitude Reporting Facility
EDT Latitude Longitude Course Direction KTS MPH feet Rate Location/Type
04:34PM 41.4419 -71.4819 254° West 119 137 4,200  Level Boston Center
04:35PM 41.4381 -71.5236 263° West 115 132 4,500 180 Climbing Boston Center
04:36PM 41.4342 -71.5653 263° West 120 138 4,600  Climbing Boston Center
04:37PM 41.4283 -71.6150 261° West 126 145 4,600  Level Boston Center
04:38PM 41.4244 -71.6567 263° West 126 145 4,600  Level Boston Center
04:39PM 41.4579 -71.6209 254° West  Level Estimated
04:39PM 41.4206 -71.7175 265° West 131 151 4,600  Level Boston Center
04:40PM 41.4167 -71.7647 264° West 132 152 4,600  Level Boston Center
04:41PM 41.4128 -71.8144 264° West 134 154 4,600 -60 Level Boston Center
04:42PM 41.4089 -71.8589 263° West 132 152 4,500 -60 Descending Boston Center
04:43PM 41.4031 -71.9114 262° West 126 145 4,500  Level Boston Center
04:44PM 41.3969 -71.9586 260° West 117 135 4,500  Level Boston Center
04:45PM 41.3950 -72.0028 267° West 119 137 4,500  Level Boston Center
04:46PM 41.3911 -72.0472 263° West 123 142 4,500  Level Boston Center
04:47PM 41.3869 -72.0914 263° West 127 146 4,500 -60 Level Boston Center
04:48PM 41.3831 -72.1386 264° West 132 152 4,400  Descending Boston Center
04:49PM 41.3769 -72.1856 260° West 121 139 4,500  Climbing Boston Center
04:50PM 41.3750 -72.2381 267° West 123 142 4,500  Level Boston Center
04:51PM 41.3708 -72.2797 262° West 120 138 4,500  Level Boston Center
04:53PM 41.3667 -72.3667 266° West 122 140 4,500 60 Level New York TRACON
04:54PM 41.3667 -72.4167 270° West 112 129 4,800 -60 Climbing New York TRACON
04:55PM 41.3667 -72.4500 270° West 130 150 4,400 -180 Descending New York TRACON
04:56PM 41.3500 -72.5000 246° West 121 139 4,500  Climbing New York TRACON
04:57PM 41.3500 -72.5500 270° West 119 137 4,500  Level New York TRACON
04:58PM 41.3500 -72.6000 270° West 119 137 4,500 -60 Level New York TRACON
04:59PM 41.3500 -72.6333 270° West 119 137 4,400 -60 Descending New York TRACON
05:00PM 41.3500 -72.6833 270° West 117 135 4,400  Level New York TRACON
05:01PM 41.3500 -72.7167 270° West 116 133 4,500  Climbing New York TRACON
05:02PM 41.3333 -72.7667 246° West 117 135 4,500  Level New York TRACON
05:03PM 41.3333 -72.8000 270° West 122 140 4,600  Climbing New York TRACON
05:04PM 41.3333 -72.8500 270° West 121 139 4,600  Level New York TRACON
05:05PM 41.3333 -72.9000 270° West 123 142 4,600 -60 Level New York TRACON
05:06PM 41.3333 -72.9333 270° West 122 140 4,500 -60 Descending New York TRACON
05:07PM 41.3333 -72.9833 270° West 122 140 4,500  Level New York TRACON
05:08PM 41.3333 -73.0333 270° West 119 137 4,600  Climbing New York TRACON
05:09PM 41.3333 -73.0667 270° West 121 139 4,600 -60 Level New York TRACON
05:10PM 41.3333 -73.1167 270° West 124 143 4,500 -60 Descending New York TRACON
05:11PM 41.3333 -73.1667 270° West 122 140 4,500  Level New York TRACON
05:12PM 41.3333 -73.2167 270° West 131 151 4,500  Level New York TRACON
05:13PM 41.3167 -73.2500 236° Southwest 120 138 4,600  Climbing New York TRACON
05:14PM 41.3167 -73.3000 270° West 122 140 4,600  Level New York TRACON
05:15PM 41.3167 -73.3333 270° West 121 139 4,600 -60 Level New York TRACON
05:16PM 41.3000 -73.3833 246° West 128 147 4,500  Descending New York TRACON
05:17PM 41.3000 -73.4333 270° West 119 137 4,600  Climbing New York TRACON
05:18PM 41.3000 -73.4667 270° West 122 140 4,600  Level New York TRACON
05:19PM 41.2833 -73.5167 246° West 119 137 4,600  Level New York TRACON
05:20PM 41.2833 -73.5667 270° West 123 142 4,600  Level New York TRACON
05:21PM 41.2667 -73.6000 236° Southwest 122 140 4,600  Level New York TRACON
05:22PM 41.2667 -73.6500 270° West 122 140 4,600 -60 Level New York TRACON
05:23PM 41.2500 -73.6833 236° Southwest 127 146 4,500  Descending New York TRACON
05:24PM 41.2500 -73.7333 270° West 124 143 4,600  Climbing New York TRACON
05:25PM 41.2333 -73.7667 236° Southwest 124 143 4,600 -60 Level New York TRACON
05:26PM 41.2333 -73.8167 270° West 122 140 4,500 -360 Descending New York TRACON
05:27PM 41.2167 -73.8667 246° West 132 152 3,900 -660 Descending New York TRACON
05:28PM 41.2000 -73.9167 246° West 127 146 3,200 -600 Descending New York TRACON
05:29PM 41.2000 -73.9667 270° West 130 150 2,700 -360 Descending New York TRACON
05:30PM 41.1833 -74.0000 236° Southwest 120 138 2,500 -120 Descending New York TRACON
05:31PM 41.1667 -74.0333 236° Southwest 120 138 2,500  Level New York TRACON
05:33PM 41.1333 -74.0833 228° Southwest 117 135 2,500  Level New York TRACON
05:34PM 41.1000 -74.1167 217° Southwest 113 130 2,600  Climbing New York TRACON
05:35PM 41.0833 -74.1500 236° Southwest 112 129 2,500 -120 Descending New York TRACON
05:36PM 41.0500 -74.1667 201° Southwest 108 124 2,400  Descending New York TRACON
05:37PM 41.0333 -74.1833 217° Southwest 109 125 2,500  Climbing New York TRACON
05:38PM 41.0000 -74.2167 217° Southwest 107 123 2,500  Level New York TRACON
05:39PM 40.9833 -74.2333 217° Southwest 105 121 2,600 60 Climbing New York TRACON
05:40PM 40.9500 -74.2500 201° Southwest 111 128 2,700 60 Climbing New York TRACON
05:41PM 40.9333 -74.2833 237° Southwest 114 131 2,800  Climbing New York TRACON
05:42PM 40.9000 -74.3000 201° Southwest 115 132 2,700 -300 Descending New York TRACON
05:43PM 40.8833 -74.3333 237° Southwest 126 145 2,200 -600 Descending New York TRACON
05:44PM 40.8500 -74.3667 217° Southwest 115 132 1,500 -300 Descending New York TRACON
05:45PM 40.8500 -74.4000 270° West 106 122 1,600 60 Climbing New York TRACON